createdAt,value
2022-11-06T00:00:44.046Z,100439.75
2022-11-06T00:03:10.957Z,100427.69
2022-11-06T00:05:51.909Z,100429.50
2022-11-06T00:08:28.169Z,100443.59
2022-11-06T00:10:54.997Z,100434.22
2022-11-06T00:13:21.824Z,100428.91
2022-11-06T00:15:48.819Z,100426.88
2022-11-06T00:18:15.995Z,100432.81
2022-11-06T00:20:44.638Z,100436.47
2022-11-06T00:23:11.428Z,100439.94
2022-11-06T00:25:40.347Z,100432.63
2022-11-06T00:28:07.528Z,100423.44
2022-11-06T00:30:35.857Z,100416.47
2022-11-06T00:33:02.889Z,100420.78
2022-11-06T00:35:29.688Z,100411.19
2022-11-06T00:37:56.807Z,100412.81
2022-11-06T00:40:23.625Z,100415.66
2022-11-06T00:42:53.666Z,100407.72
2022-11-06T00:45:20.838Z,100402.41
2022-11-06T00:47:47.746Z,100402.03
2022-11-06T00:50:14.738Z,100395.72
2022-11-06T00:52:41.621Z,100396.72
2022-11-06T00:55:08.500Z,100386.28
2022-11-06T00:57:35.546Z,100385.47
2022-11-06T01:00:02.579Z,100375.09
2022-11-06T01:02:29.744Z,100376.09
2022-11-06T01:04:56.697Z,100374.25
2022-11-06T01:07:24.639Z,100367.91
2022-11-06T01:09:51.537Z,100371.19
2022-11-06T01:12:18.959Z,100368.75
2022-11-06T01:14:45.799Z,100357.31
2022-11-06T01:17:12.797Z,100359.16
2022-11-06T01:19:40.006Z,100352.22
2022-11-06T01:22:06.864Z,100348.13
2022-11-06T01:24:35.372Z,100340.38
2022-11-06T01:27:25.503Z,100343.03
2022-11-06T01:29:49.747Z,100349.94
2022-11-06T01:32:16.886Z,100344.63
2022-11-06T01:34:43.844Z,100346.91
2022-11-06T01:37:14.527Z,100340.78
2022-11-06T01:39:42.132Z,100338.72
2022-11-06T01:42:11.540Z,100336.91
2022-11-06T01:44:41.673Z,100327.34
2022-11-06T01:47:19.049Z,100320.16
2022-11-06T01:49:46.325Z,100320.16
2022-11-06T01:52:15.226Z,100300.59
2022-11-06T01:54:44.166Z,100309.19
2022-11-06T01:57:11.661Z,100306.53
2022-11-06T01:59:40.449Z,100294.09
2022-11-06T02:02:08.294Z,100295.72
2022-11-06T02:04:37.912Z,100298.97
2022-11-06T02:07:06.454Z,100291.00
2022-11-06T02:09:35.011Z,100284.69
2022-11-06T02:12:13.262Z,100275.91
2022-11-06T02:14:50.021Z,100268.97
2022-11-06T02:17:25.895Z,100264.50
2022-11-06T02:20:02.851Z,100251.41
2022-11-06T02:22:40.398Z,100245.91
2022-11-06T02:25:13.294Z,100252.88
2022-11-06T02:27:41.681Z,100242.69
2022-11-06T02:30:09.889Z,100246.34
2022-11-06T02:32:46.502Z,100243.09
2022-11-06T02:35:23.195Z,100243.09
2022-11-06T02:37:54.100Z,100235.53
2022-11-06T02:40:22.297Z,100241.84
2022-11-06T02:42:52.109Z,100243.91
2022-11-06T02:45:20.270Z,100242.88
2022-11-06T02:47:50.409Z,100242.06
2022-11-06T02:50:23.681Z,100239.19
2022-11-06T02:52:56.179Z,100236.16
2022-11-06T02:55:28.160Z,100237.78
2022-11-06T02:57:57.526Z,100226.13
2022-11-06T03:00:25.645Z,100221.06
2022-11-06T03:02:52.744Z,100218.59
2022-11-06T03:05:22.682Z,100219.41
2022-11-06T03:07:59.692Z,100205.94
2022-11-06T03:10:34.838Z,100209.41
2022-11-06T03:13:11.866Z,100206.97
2022-11-06T03:15:47.925Z,100201.44
2022-11-06T03:18:23.999Z,100196.75
2022-11-06T03:20:51.325Z,100197.75
2022-11-06T03:23:23.168Z,100195.94
2022-11-06T03:25:52.781Z,100188.16
2022-11-06T03:28:22.866Z,100185.13
2022-11-06T03:30:52.440Z,100179.81
2022-11-06T03:33:21.970Z,100185.94
2022-11-06T03:35:55.499Z,100179.00
2022-11-06T03:38:26.626Z,100172.88
2022-11-06T03:40:55.014Z,100166.94
2022-11-06T03:43:25.525Z,100169.41
2022-11-06T03:45:53.536Z,100158.78
2022-11-06T03:48:24.033Z,100156.94
2022-11-06T03:50:57.590Z,100151.84
2022-11-06T03:53:29.280Z,100149.19
2022-11-06T03:56:00.467Z,100149.19
2022-11-06T03:58:30.799Z,100140.41
2022-11-06T04:01:00.057Z,100147.34
2022-11-06T04:03:30.166Z,100136.97
2022-11-06T04:06:01.058Z,100144.09
2022-11-06T04:08:39.904Z,100141.44
2022-11-06T04:11:18.065Z,100133.69
2022-11-06T04:13:56.340Z,100132.69
2022-11-06T04:16:24.146Z,100137.16
2022-11-06T04:18:51.025Z,100130.84
2022-11-06T04:21:26.580Z,100127.97
2022-11-06T04:24:13.098Z,100128.19
2022-11-06T04:26:45.709Z,100131.03
2022-11-06T04:29:12.944Z,100119.59
2022-11-06T04:31:47.015Z,100115.94
2022-11-06T04:34:14.181Z,100118.59
2022-11-06T04:36:45.238Z,100114.69
2022-11-06T04:39:22.100Z,100113.69
2022-11-06T04:41:50.254Z,100112.66
2022-11-06T04:44:28.100Z,100118.78
2022-11-06T04:46:58.199Z,100114.50
2022-11-06T04:49:26.589Z,100117.78
2022-11-06T04:51:54.208Z,100122.25
2022-11-06T04:54:21.749Z,100125.72
2022-11-06T04:56:49.745Z,100126.75
2022-11-06T04:59:18.577Z,100117.97
2022-11-06T05:01:46.826Z,100129.00
2022-11-06T05:04:14.390Z,100127.56
2022-11-06T05:06:41.293Z,100131.03
2022-11-06T05:09:08.222Z,100126.75
2022-11-06T05:11:35.069Z,100125.13
2022-11-06T05:14:02.210Z,100118.53
2022-11-06T05:16:29.115Z,100127.31
2022-11-06T05:18:56.209Z,100121.03
2022-11-06T05:21:34.135Z,100124.50
2022-11-06T05:24:01.310Z,100117.72
2022-11-06T05:26:28.272Z,100118.91
2022-11-06T05:28:58.229Z,100114.44
2022-11-06T05:31:25.660Z,100110.13
2022-11-06T05:33:53.667Z,100105.03
2022-11-06T05:36:22.719Z,100100.56
2022-11-06T05:38:49.819Z,100099.72
2022-11-06T05:41:17.496Z,100113.63
2022-11-06T05:43:44.733Z,100097.91
2022-11-06T05:46:35.770Z,100105.44
2022-11-06T05:49:00.931Z,100082.41
2022-11-06T05:51:31.547Z,100077.09
2022-11-06T05:53:59.927Z,100062.22
2022-11-06T05:56:27.228Z,100072.00
2022-11-06T05:58:54.039Z,100066.69
2022-11-06T06:01:21.450Z,100047.13
2022-11-06T06:03:48.295Z,100074.66
2022-11-06T06:06:16.032Z,100051.00
2022-11-06T06:08:43.235Z,100042.44
2022-11-06T06:11:10.598Z,100024.28
2022-11-06T06:13:38.650Z,100054.66
2022-11-06T06:16:08.769Z,100040.97
2022-11-06T06:18:40.005Z,100039.56
2022-11-06T06:21:08.312Z,100038.75
2022-11-06T06:23:35.131Z,100030.78
2022-11-06T06:26:03.103Z,100025.50
2022-11-06T06:28:30.280Z,100015.53
2022-11-06T06:31:01.516Z,100000.00
2022-11-06T06:33:29.219Z,100005.53
2022-11-06T06:35:56.638Z,99999.41
2022-11-06T06:38:24.879Z,99994.94
2022-11-06T06:40:51.752Z,99988.81
2022-11-06T06:43:18.524Z,99987.19
2022-11-06T06:45:46.345Z,99982.06
2022-11-06T06:48:15.086Z,99973.31
2022-11-06T06:50:42.069Z,99975.75
2022-11-06T06:53:08.985Z,99968.81
2022-11-06T06:55:36.060Z,99964.34
2022-11-06T06:58:03.306Z,99956.41
2022-11-06T07:00:31.063Z,99958.03
2022-11-06T07:02:57.921Z,99944.78
2022-11-06T07:05:29.014Z,99945.59
2022-11-06T07:07:55.786Z,99949.91
2022-11-06T07:10:24.435Z,99942.72
2022-11-06T07:12:52.141Z,99943.56
2022-11-06T07:15:19.926Z,99930.31
2022-11-06T07:17:47.298Z,99934.41
2022-11-06T07:20:15.713Z,99939.50
2022-11-06T07:22:43.055Z,99928.47
2022-11-06T07:25:10.413Z,99932.78
2022-11-06T07:27:37.815Z,99935.41
2022-11-06T07:30:06.096Z,99927.88
2022-11-06T07:32:33.807Z,99924.00
2022-11-06T07:35:01.295Z,99919.09
2022-11-06T07:37:29.086Z,99917.84
2022-11-06T07:39:56.053Z,99922.75
2022-11-06T07:42:23.666Z,99916.03
2022-11-06T07:44:55.033Z,99905.00
2022-11-06T07:47:24.059Z,99905.63
2022-11-06T07:49:51.622Z,99907.47
2022-11-06T07:52:18.714Z,99913.38
2022-11-06T07:54:47.183Z,99909.69
2022-11-06T07:57:14.995Z,99909.47
2022-11-06T07:59:44.790Z,99922.53
2022-11-06T08:02:13.606Z,99911.75
2022-11-06T08:04:45.649Z,99917.63
2022-11-06T08:07:13.774Z,99918.44
2022-11-06T08:09:41.921Z,99917.44
2022-11-06T08:12:09.265Z,99924.38
2022-11-06T08:14:41.403Z,99920.69
2022-11-06T08:17:11.531Z,99932.09
2022-11-06T08:19:39.576Z,99950.06
2022-11-06T08:22:06.847Z,99955.56
2022-11-06T08:24:36.114Z,99965.56
2022-11-06T08:27:04.153Z,99969.63
2022-11-06T08:29:33.204Z,99959.44
2022-11-06T08:32:02.051Z,99950.09
2022-11-06T08:34:29.405Z,99942.72
2022-11-06T08:36:58.890Z,99934.59
2022-11-06T08:39:27.016Z,99929.47
2022-11-06T08:41:54.287Z,99933.38
2022-11-06T08:44:24.431Z,99938.66
2022-11-06T08:46:53.998Z,99936.22
2022-11-06T08:49:22.456Z,99945.81
2022-11-06T08:51:49.387Z,99935.19
2022-11-06T08:54:16.919Z,99925.63
2022-11-06T08:56:44.422Z,99919.50
2022-11-06T08:59:11.208Z,99913.38
2022-11-06T09:01:38.893Z,99911.75
2022-11-06T09:04:08.073Z,99903.00
2022-11-06T09:06:35.661Z,99907.88
2022-11-06T09:09:03.033Z,99900.13
2022-11-06T09:11:30.240Z,99901.56
2022-11-06T09:13:58.144Z,99883.00
2022-11-06T09:16:26.726Z,99900.94
2022-11-06T09:18:55.250Z,99909.72
2022-11-06T09:21:23.488Z,99919.88
2022-11-06T09:23:51.611Z,99914.41
2022-11-06T09:26:18.367Z,99909.72
2022-11-06T09:28:45.826Z,99916.41
2022-11-06T09:31:14.687Z,99902.34
2022-11-06T09:33:42.247Z,99897.03
2022-11-06T09:36:11.073Z,99892.56
2022-11-06T09:38:38.367Z,99883.81
2022-11-06T09:41:08.904Z,99888.94
2022-11-06T09:44:04.175Z,99871.41
2022-11-06T09:46:35.930Z,99875.06
2022-11-06T09:49:12.674Z,99887.88
2022-11-06T09:51:47.203Z,99871.59
2022-11-06T09:54:20.016Z,99873.41
2022-11-06T09:56:49.264Z,99865.66
2022-11-06T09:59:18.058Z,99861.19
2022-11-06T10:01:50.827Z,99863.63
2022-11-06T10:04:25.049Z,99856.28
2022-11-06T10:06:52.071Z,99836.72
2022-11-06T10:09:19.779Z,99834.47
2022-11-06T10:11:52.355Z,99815.91
2022-11-06T10:14:19.324Z,99802.06
2022-11-06T10:16:47.170Z,99818.97
2022-11-06T10:19:23.858Z,99817.94
2022-11-06T10:21:59.391Z,99818.34
2022-11-06T10:24:35.908Z,99825.28
2022-11-06T10:27:05.115Z,99817.31
2022-11-06T10:29:35.116Z,99824.06
2022-11-06T10:32:12.622Z,99823.25
2022-11-06T10:34:39.893Z,99832.00
2022-11-06T10:37:17.587Z,99826.28
2022-11-06T10:39:44.760Z,99802.63
2022-11-06T10:42:11.798Z,99815.88
2022-11-06T10:44:46.286Z,99817.50
2022-11-06T10:47:19.518Z,99818.31
2022-11-06T10:49:48.383Z,99815.28
2022-11-06T10:52:25.037Z,99823.25
2022-11-06T10:55:02.234Z,99824.66
2022-11-06T10:57:35.463Z,99826.09
2022-11-06T11:00:02.793Z,99823.25
2022-11-06T11:02:31.118Z,99820.16
2022-11-06T11:04:58.629Z,99816.69
2022-11-06T11:07:26.859Z,99804.50
2022-11-06T11:09:53.716Z,99798.38
2022-11-06T11:12:22.808Z,99792.84
2022-11-06T11:14:59.227Z,99805.50
2022-11-06T11:17:26.239Z,99786.72
2022-11-06T11:19:53.006Z,99782.03
2022-11-06T11:22:20.958Z,99781.81
2022-11-06T11:24:57.688Z,99785.69
2022-11-06T11:27:25.484Z,99780.38
2022-11-06T11:29:52.551Z,99779.34
2022-11-06T11:32:21.446Z,99787.91
2022-11-06T11:34:55.410Z,99778.16
2022-11-06T11:37:28.574Z,99773.81
2022-11-06T11:39:55.820Z,99769.34
2022-11-06T11:42:32.301Z,99767.53
2022-11-06T11:45:10.399Z,99754.91
2022-11-06T11:47:38.597Z,99748.56
2022-11-06T11:50:16.712Z,99745.91
2022-11-06T11:52:44.922Z,99746.13
2022-11-06T11:55:21.168Z,99740.63
2022-11-06T11:57:49.471Z,99734.88
2022-11-06T12:00:20.665Z,99725.28
2022-11-06T12:02:51.568Z,99724.69
2022-11-06T12:05:21.809Z,99725.94
2022-11-06T12:07:50.379Z,99714.69
2022-11-06T12:10:26.805Z,99720.19
2022-11-06T12:12:54.692Z,99706.94
2022-11-06T12:15:25.215Z,99680.41
2022-11-06T12:18:01.964Z,99688.16
2022-11-06T12:20:42.066Z,99693.84
2022-11-06T12:23:16.426Z,99687.69
2022-11-06T12:25:48.690Z,99694.03
2022-11-06T12:28:17.601Z,99679.97
2022-11-06T12:30:46.910Z,99674.66
2022-11-06T12:33:16.763Z,99664.44
2022-11-06T12:35:53.971Z,99651.59
2022-11-06T12:38:31.500Z,99649.75
2022-11-06T12:41:02.531Z,99644.03
2022-11-06T12:43:34.277Z,99631.97
2022-11-06T12:46:01.865Z,99637.28
2022-11-06T12:48:35.708Z,99634.97
2022-11-06T12:51:22.670Z,99634.16
2022-11-06T12:53:56.670Z,99619.47
2022-11-06T12:56:32.947Z,99619.63
2022-11-06T12:59:06.111Z,99615.28
2022-11-06T13:01:43.086Z,99613.69
2022-11-06T13:04:13.507Z,99609.41
2022-11-06T13:06:50.792Z,99599.00
2022-11-06T13:09:21.338Z,99599.81
2022-11-06T13:11:53.151Z,99600.00
2022-11-06T13:14:25.877Z,99601.06
2022-11-06T13:17:03.028Z,99602.91
2022-11-06T13:19:30.280Z,99592.06
2022-11-06T13:22:05.610Z,99599.81
2022-11-06T13:24:36.407Z,99594.50
2022-11-06T13:27:04.028Z,99583.06
2022-11-06T13:29:31.692Z,99581.69
2022-11-06T13:32:01.988Z,99578.63
2022-11-06T13:34:32.505Z,99580.25
2022-11-06T13:37:00.692Z,99586.38
2022-11-06T13:39:36.773Z,99590.44
2022-11-06T13:42:06.236Z,99585.78
2022-11-06T13:44:34.022Z,99581.38
2022-11-06T13:47:10.763Z,99591.56
2022-11-06T13:49:47.136Z,99589.41
2022-11-06T13:52:20.484Z,99601.09
2022-11-06T13:54:56.861Z,99593.38
2022-11-06T13:57:33.759Z,99582.59
2022-11-06T14:00:07.281Z,99592.44
2022-11-06T14:02:44.128Z,99591.66
2022-11-06T14:05:20.799Z,99574.78
2022-11-06T14:07:48.439Z,99588.66
2022-11-06T14:10:19.239Z,99589.09
2022-11-06T14:12:47.436Z,99578.75
2022-11-06T14:15:24.161Z,99587.97
2022-11-06T14:17:55.692Z,99582.75
2022-11-06T14:20:31.755Z,99561.38
2022-11-06T14:23:09.070Z,99560.56
2022-11-06T14:25:46.204Z,99543.66
2022-11-06T14:28:28.819Z,99551.19
2022-11-06T14:31:13.509Z,99546.56
2022-11-06T14:33:42.398Z,99545.97
2022-11-06T14:36:18.928Z,99545.97
2022-11-06T14:38:46.274Z,99558.22
2022-11-06T14:41:22.658Z,99547.44
2022-11-06T14:43:51.940Z,99553.00
2022-11-06T14:46:22.487Z,99556.22
2022-11-06T14:48:52.199Z,99562.34
2022-11-06T14:51:25.632Z,99553.81
2022-11-06T14:53:55.119Z,99551.97
2022-11-06T14:56:26.076Z,99563.16
2022-11-06T14:58:56.458Z,99572.91
2022-11-06T15:01:30.068Z,99571.69
2022-11-06T15:03:59.914Z,99579.00
2022-11-06T15:06:34.121Z,99575.31
2022-11-06T15:09:06.380Z,99569.16
2022-11-06T15:11:33.939Z,99579.34
2022-11-06T15:14:06.139Z,99569.56
2022-11-06T15:16:45.814Z,99568.53
2022-11-06T15:19:15.928Z,99561.63
2022-11-06T15:21:45.400Z,99559.00
2022-11-06T15:24:16.142Z,99577.75
2022-11-06T15:26:47.278Z,99578.56
2022-11-06T15:29:16.377Z,99581.78
2022-11-06T15:31:47.815Z,99588.91
2022-11-06T15:34:18.317Z,99596.66
2022-11-06T15:36:48.359Z,99593.81
2022-11-06T15:39:24.775Z,99598.72
2022-11-06T15:41:52.919Z,99600.94
2022-11-06T15:44:21.427Z,99605.63
2022-11-06T15:46:56.747Z,99608.69
2022-11-06T15:49:24.678Z,99616.25
2022-11-06T15:52:00.595Z,99618.47
2022-11-06T15:54:32.872Z,99624.00
2022-11-06T15:57:02.206Z,99614.06
2022-11-06T15:59:29.881Z,99621.56
2022-11-06T16:01:57.251Z,99627.47
2022-11-06T16:04:26.148Z,99624.84
2022-11-06T16:06:54.441Z,99626.47
2022-11-06T16:09:24.236Z,99621.38
2022-11-06T16:11:52.616Z,99619.75
2022-11-06T16:14:20.830Z,99605.09
2022-11-06T16:16:49.550Z,99616.50
2022-11-06T16:19:20.476Z,99624.22
2022-11-06T16:21:51.961Z,99612.63
2022-11-06T16:24:19.043Z,99620.56
2022-11-06T16:26:47.863Z,99615.03
2022-11-06T16:29:18.357Z,99619.75
2022-11-06T16:31:46.249Z,99634.19
2022-11-06T16:34:33.197Z,99629.31
2022-11-06T16:37:01.721Z,99620.13
2022-11-06T16:39:48.717Z,99629.72
2022-11-06T16:42:23.738Z,99630.13
2022-11-06T16:44:51.715Z,99629.94
2022-11-06T16:47:20.878Z,99627.09
2022-11-06T16:49:53.594Z,99631.56
2022-11-06T16:52:23.547Z,99636.88
2022-11-06T16:54:53.087Z,99637.06
2022-11-06T16:57:22.220Z,99629.94
2022-11-06T16:59:59.129Z,99648.84
2022-11-06T17:02:28.593Z,99638.50
2022-11-06T17:05:04.828Z,99649.06
2022-11-06T17:07:32.056Z,99655.59
2022-11-06T17:10:19.058Z,99656.38
2022-11-06T17:12:46.108Z,99663.09
2022-11-06T17:15:13.181Z,99665.56
2022-11-06T17:17:40.278Z,99666.97
2022-11-06T17:20:13.758Z,99667.19
2022-11-06T17:22:40.795Z,99670.25
2022-11-06T17:25:08.156Z,99670.66
2022-11-06T17:27:35.140Z,99666.19
2022-11-06T17:30:02.367Z,99665.38
2022-11-06T17:32:29.769Z,99664.75
2022-11-06T17:34:56.783Z,99667.59
2022-11-06T17:37:23.915Z,99674.53
2022-11-06T17:39:51.040Z,99670.03
2022-11-06T17:42:18.121Z,99670.66
2022-11-06T17:44:46.626Z,99680.22
2022-11-06T17:47:13.933Z,99685.69
2022-11-06T17:49:41.077Z,99692.84
2022-11-06T17:52:08.310Z,99694.66
2022-11-06T17:54:37.517Z,99691.59
2022-11-06T17:57:05.434Z,99697.69
2022-11-06T17:59:32.709Z,99699.72
2022-11-06T18:02:00.536Z,99699.94
2022-11-06T18:04:31.077Z,99699.34
2022-11-06T18:06:58.563Z,99708.09
2022-11-06T18:09:26.110Z,99709.09
2022-11-06T18:11:54.690Z,99717.03
2022-11-06T18:14:22.770Z,99718.03
2022-11-06T18:16:49.998Z,99716.19
2022-11-06T18:19:18.383Z,99716.81
2022-11-06T18:21:46.561Z,99718.63
2022-11-06T18:24:14.272Z,99726.38
2022-11-06T18:26:41.357Z,99723.91
2022-11-06T18:29:09.021Z,99731.66
2022-11-06T18:31:36.361Z,99738.59
2022-11-06T18:34:04.294Z,99741.84
2022-11-06T18:36:33.085Z,99739.78
2022-11-06T18:39:01.228Z,99740.59
2022-11-06T18:41:30.477Z,99738.97
2022-11-06T18:43:58.359Z,99736.94
2022-11-06T18:46:28.249Z,99738.75
2022-11-06T18:48:56.461Z,99736.94
2022-11-06T18:51:34.612Z,99738.72
2022-11-06T18:54:05.347Z,99747.28
2022-11-06T18:56:32.828Z,99741.78
2022-11-06T18:59:00.168Z,99741.19
2022-11-06T19:01:28.273Z,99737.72
2022-11-06T19:03:55.608Z,99739.13
2022-11-06T19:06:22.808Z,99740.97
2022-11-06T19:08:49.949Z,99748.66
2022-11-06T19:11:18.185Z,99754.78
2022-11-06T19:13:48.427Z,99756.81
2022-11-06T19:16:16.852Z,99755.22
2022-11-06T19:18:44.230Z,99760.94
2022-11-06T19:21:12.246Z,99762.75
2022-11-06T19:23:41.008Z,99763.97
2022-11-06T19:29:00.521Z,99773.28
2022-11-06T19:31:29.823Z,99779.00
2022-11-06T19:33:57.877Z,99770.44
2022-11-06T19:36:25.827Z,99783.47
2022-11-06T19:38:53.375Z,99787.94
2022-11-06T19:41:20.961Z,99787.91
2022-11-06T19:43:48.316Z,99788.69
2022-11-06T19:46:23.485Z,99791.16
2022-11-06T19:48:53.379Z,99788.31
2022-11-06T19:51:21.251Z,99784.84
2022-11-06T19:53:51.747Z,99786.50
2022-11-06T19:56:19.439Z,99795.66
2022-11-06T19:58:47.701Z,99800.53
2022-11-06T20:01:15.051Z,99795.22
2022-11-06T20:03:42.477Z,99803.94
2022-11-06T20:06:10.304Z,99808.78
2022-11-06T20:08:39.161Z,99800.84
2022-11-06T20:11:07.382Z,99799.03
2022-11-06T20:13:37.963Z,99809.59
2022-11-06T20:16:07.566Z,99811.59
2022-11-06T20:18:36.407Z,99805.72
2022-11-06T20:21:04.420Z,99809.59
2022-11-06T20:23:31.669Z,99808.41
2022-11-06T20:25:58.991Z,99812.06
2022-11-06T20:28:26.156Z,99808.78
2022-11-06T20:30:53.329Z,99815.72
2022-11-06T20:33:20.820Z,99816.53
2022-11-06T20:35:48.021Z,99820.22
2022-11-06T20:38:15.346Z,99823.69
2022-11-06T20:40:43.115Z,99827.56
2022-11-06T20:43:10.533Z,99829.38
2022-11-06T20:45:38.047Z,99830.81
2022-11-06T20:48:06.031Z,99831.00
2022-11-06T20:50:33.507Z,99838.72
2022-11-06T20:53:00.767Z,99840.53
2022-11-06T20:55:28.059Z,99835.66
2022-11-06T20:57:55.274Z,99833.03
2022-11-06T21:00:23.007Z,99838.13
2022-11-06T21:02:50.288Z,99845.88
2022-11-06T21:05:17.642Z,99848.28
2022-11-06T21:07:44.865Z,99846.09
2022-11-06T21:10:12.967Z,99847.09
2022-11-06T21:12:40.238Z,99853.38
2022-11-06T21:15:08.803Z,99856.22
2022-11-06T21:17:35.900Z,99842.81
2022-11-06T21:20:02.982Z,99844.66
2022-11-06T21:22:30.112Z,99850.56
2022-11-06T21:24:57.106Z,99858.09
2022-11-06T21:27:24.515Z,99863.38
2022-11-06T21:29:51.878Z,99863.97
2022-11-06T21:32:19.096Z,99865.41
2022-11-06T21:34:46.328Z,99860.72
2022-11-06T21:37:14.079Z,99869.03
2022-11-06T21:39:41.258Z,99871.06
2022-11-06T21:42:08.411Z,99867.78
2022-11-06T21:44:35.568Z,99863.31
2022-11-06T21:47:02.607Z,99863.13
2022-11-06T21:49:29.578Z,99866.19
2022-11-06T21:52:16.578Z,99867.00
2022-11-06T21:54:53.615Z,99865.59
2022-11-06T21:57:20.736Z,99871.72
2022-11-06T21:59:47.871Z,99865.41
2022-11-06T22:02:15.222Z,99860.31
2022-11-06T22:04:42.429Z,99860.31
2022-11-06T22:07:09.428Z,99858.69
2022-11-06T22:09:36.513Z,99858.69
2022-11-06T22:12:03.541Z,99858.88
2022-11-06T22:14:30.420Z,99866.19
2022-11-06T22:16:57.459Z,99869.66
2022-11-06T22:19:24.418Z,99860.72
2022-11-06T22:21:51.539Z,99865.59
2022-11-06T22:24:18.459Z,99874.94
2022-11-06T22:26:45.321Z,99870.09
2022-11-06T22:29:13.543Z,99868.69
2022-11-06T22:31:40.464Z,99872.16
2022-11-06T22:34:07.510Z,99868.06
2022-11-06T22:36:36.554Z,99873.34
2022-11-06T22:39:05.877Z,99869.72
2022-11-06T22:41:32.851Z,99866.06
2022-11-06T22:44:00.290Z,99868.69
2022-11-06T22:46:27.579Z,99866.25
2022-11-06T22:48:54.630Z,99874.00
2022-11-06T22:51:23.397Z,99866.25
2022-11-06T22:53:51.383Z,99868.69
2022-11-06T22:56:19.228Z,99876.44
2022-11-06T22:58:46.418Z,99874.19
2022-11-06T23:01:13.679Z,99883.94
2022-11-06T23:03:41.128Z,99878.84
2022-11-06T23:06:09.851Z,99882.28
2022-11-06T23:08:40.600Z,99885.53
2022-11-06T23:11:10.659Z,99879.22
2022-11-06T23:13:39.191Z,99880.88
2022-11-06T23:16:08.359Z,99875.41
2022-11-06T23:18:35.750Z,99877.22
2022-11-06T23:21:02.632Z,99873.56
2022-11-06T23:23:29.809Z,99873.75
2022-11-06T23:25:57.213Z,99871.13
2022-11-06T23:28:24.850Z,99866.47
2022-11-06T23:30:52.015Z,99876.63
2022-11-06T23:33:19.506Z,99870.72
2022-11-06T23:35:46.338Z,99870.94
2022-11-06T23:38:14.312Z,99872.13
2022-11-06T23:40:41.218Z,99881.88
2022-11-06T23:43:08.457Z,99879.44
2022-11-06T23:45:47.223Z,99874.94
2022-11-06T23:48:15.885Z,99879.22
2022-11-06T23:50:47.851Z,99875.34
2022-11-06T23:53:16.568Z,99882.28
2022-11-06T23:55:44.330Z,99877.81
2022-11-06T23:58:12.262Z,99881.06
